createdAt,value
2023-03-17T00:01:57.693Z,97096.84
2023-03-17T00:04:26.727Z,97093.56
2023-03-17T00:06:55.104Z,97091.81
2023-03-17T00:09:23.324Z,97093.81
2023-03-17T00:11:51.421Z,97094.84
2023-03-17T00:14:19.629Z,97086.13
2023-03-17T00:16:49.811Z,97091.47
2023-03-17T00:19:20.834Z,97089.63
2023-03-17T00:21:48.650Z,97094.84
2023-03-17T00:24:17.288Z,97083.56
2023-03-17T00:26:45.208Z,97082.72
2023-03-17T00:29:13.375Z,97093.25
2023-03-17T00:31:41.321Z,97088.84
2023-03-17T00:34:12.248Z,97084.78
2023-03-17T00:36:41.623Z,97089.94
2023-03-17T00:41:40.894Z,97079.31
2023-03-17T00:44:08.740Z,97098.00
2023-03-17T00:46:38.449Z,97089.53
2023-03-17T00:51:45.981Z,97078.28
2023-03-17T00:54:15.565Z,97070.22
2023-03-17T00:56:44.297Z,97065.91
2023-03-17T00:59:19.531Z,97065.84
2023-03-17T01:01:47.707Z,97065.84
2023-03-17T01:04:15.760Z,97060.47
2023-03-17T01:06:44.947Z,97064.84
2023-03-17T01:09:14.796Z,97061.31
2023-03-17T01:11:42.712Z,97062.34
2023-03-17T01:14:13.969Z,97058.94
2023-03-17T01:16:41.910Z,97056.47
2023-03-17T01:19:10.943Z,97057.25
2023-03-17T01:21:38.713Z,97043.38
2023-03-17T01:24:09.613Z,97038.94
2023-03-17T01:26:37.596Z,97034.56
2023-03-17T01:29:06.401Z,97031.19
2023-03-17T01:31:34.308Z,97030.34
2023-03-17T01:34:02.633Z,97027.78
2023-03-17T01:36:30.382Z,97027.78
2023-03-17T01:38:58.656Z,97025.28
2023-03-17T01:41:27.931Z,97026.13
2023-03-17T01:43:55.686Z,97019.22
2023-03-17T01:46:29.277Z,97021.97
2023-03-17T01:49:10.236Z,97014.16
2023-03-17T01:51:40.818Z,97019.53
2023-03-17T01:54:11.387Z,97024.88
2023-03-17T01:56:43.296Z,97024.81
2023-03-17T01:59:15.850Z,97020.75
2023-03-17T02:01:47.152Z,97029.19
2023-03-17T02:04:16.219Z,97030.22
2023-03-17T02:06:57.572Z,97027.63
2023-03-17T02:09:26.984Z,97020.81
2023-03-17T02:11:56.709Z,97016.44
2023-03-17T02:14:25.618Z,97009.84
2023-03-17T02:16:53.577Z,97017.50
2023-03-17T02:19:21.600Z,97000.16
2023-03-17T02:21:51.986Z,96972.47
2023-03-17T02:24:27.501Z,96994.19
2023-03-17T02:26:57.109Z,96976.03
2023-03-17T02:29:25.316Z,96973.03
2023-03-17T02:31:53.453Z,96975.41
2023-03-17T02:34:22.568Z,96971.81
2023-03-17T02:36:51.750Z,96968.31
2023-03-17T02:39:19.610Z,96971.59
2023-03-17T02:41:47.544Z,96976.72
2023-03-17T02:44:15.263Z,96984.69
2023-03-17T02:46:43.466Z,96987.53
2023-03-17T02:49:12.409Z,96966.88
2023-03-17T02:51:40.240Z,96995.78
2023-03-17T02:54:09.520Z,96980.38
2023-03-17T02:56:37.293Z,96977.16
2023-03-17T02:59:05.375Z,96975.47
2023-03-17T03:01:33.923Z,96975.78
2023-03-17T03:04:02.266Z,96970.69
2023-03-17T03:06:30.076Z,96965.66
2023-03-17T03:08:57.847Z,96969.31
2023-03-17T03:11:27.950Z,96978.03
2023-03-17T03:13:56.183Z,96988.63
2023-03-17T03:16:24.005Z,97001.72
2023-03-17T03:18:51.769Z,97000.75
2023-03-17T03:21:19.959Z,96998.19
2023-03-17T03:23:47.708Z,96983.41
2023-03-17T03:26:15.545Z,96981.84
2023-03-17T03:28:44.686Z,96982.78
2023-03-17T03:31:13.982Z,96977.66
2023-03-17T03:33:41.867Z,96975.03
2023-03-17T03:36:11.376Z,96973.41
2023-03-17T03:38:39.204Z,96962.94
2023-03-17T03:41:07.426Z,96965.59
2023-03-17T03:43:35.359Z,96973.34
2023-03-17T03:46:05.684Z,96971.72
2023-03-17T03:48:33.704Z,96980.31
2023-03-17T03:51:02.929Z,96977.78
2023-03-17T03:53:30.874Z,96965.84
2023-03-17T03:55:58.662Z,96957.97
2023-03-17T03:58:26.447Z,96966.69
2023-03-17T04:00:54.222Z,96956.41
2023-03-17T04:03:23.376Z,96960.91
2023-03-17T04:05:51.276Z,96957.41
2023-03-17T04:08:19.086Z,96954.03
2023-03-17T04:10:46.820Z,96967.09
2023-03-17T04:13:15.444Z,96965.41
2023-03-17T04:15:43.275Z,96963.09
2023-03-17T04:18:11.619Z,96966.56
2023-03-17T04:20:40.743Z,96967.53
2023-03-17T04:23:08.858Z,96960.66
2023-03-17T04:25:36.732Z,96965.16
2023-03-17T04:28:04.701Z,96966.13
2023-03-17T04:30:32.761Z,96958.19
2023-03-17T04:33:01.138Z,96964.31
2023-03-17T04:35:28.991Z,96960.00
2023-03-17T04:37:58.115Z,96966.78
2023-03-17T04:40:26.578Z,96969.44
2023-03-17T04:42:54.369Z,96967.69
2023-03-17T04:45:22.160Z,96968.59
2023-03-17T04:47:49.945Z,96959.44
2023-03-17T04:50:18.111Z,96970.78
2023-03-17T04:52:45.901Z,96969.25
2023-03-17T04:55:15.586Z,96968.47
2023-03-17T04:57:43.358Z,96971.22
2023-03-17T05:00:12.904Z,96958.25
2023-03-17T05:02:41.224Z,96964.44
2023-03-17T05:05:09.949Z,96964.44
2023-03-17T05:07:37.732Z,96961.91
2023-03-17T05:10:06.608Z,96964.50
2023-03-17T05:12:35.903Z,96964.50
2023-03-17T05:15:05.429Z,96964.59
2023-03-17T05:17:33.214Z,96982.72
2023-03-17T05:20:00.969Z,96984.56
2023-03-17T05:22:28.774Z,96991.59
2023-03-17T05:24:56.511Z,96983.78
2023-03-17T05:27:24.504Z,96975.84
2023-03-17T05:29:53.678Z,96972.31
2023-03-17T05:32:21.479Z,96981.97
2023-03-17T05:34:49.987Z,96988.22
2023-03-17T05:37:17.800Z,96990.06
2023-03-17T05:39:45.584Z,96982.38
2023-03-17T05:42:13.911Z,96980.84
2023-03-17T05:44:41.728Z,96989.50
2023-03-17T05:47:11.213Z,96975.63
2023-03-17T05:49:38.953Z,96971.41
2023-03-17T05:52:06.842Z,96976.53
2023-03-17T05:54:34.700Z,96973.59
2023-03-17T05:57:02.943Z,96968.19
2023-03-17T05:59:30.823Z,96977.53
2023-03-17T06:01:58.711Z,96966.13
2023-03-17T06:04:27.951Z,96955.38
2023-03-17T06:06:55.759Z,96954.03
2023-03-17T06:09:23.558Z,96949.41
2023-03-17T06:11:51.342Z,96942.19
2023-03-17T06:14:19.549Z,96950.50
2023-03-17T06:16:47.330Z,96961.31
2023-03-17T06:19:15.147Z,96965.25
2023-03-17T06:21:44.403Z,96969.19
2023-03-17T06:24:12.534Z,96971.63
2023-03-17T06:26:40.462Z,96980.53
2023-03-17T06:29:10.031Z,96965.97
2023-03-17T06:31:38.055Z,96991.75
2023-03-17T06:34:06.024Z,96994.53
2023-03-17T06:36:34.149Z,96986.22
2023-03-17T06:39:03.513Z,96983.94
2023-03-17T06:41:31.419Z,96988.66
2023-03-17T06:43:59.200Z,96991.59
2023-03-17T06:46:27.151Z,96987.56
2023-03-17T06:48:55.018Z,96983.41
2023-03-17T06:51:22.809Z,96986.22
2023-03-17T06:53:50.587Z,96981.53
2023-03-17T06:56:29.441Z,96983.72
2023-03-17T06:58:57.590Z,96982.81
2023-03-17T07:01:25.551Z,96987.34
2023-03-17T07:03:53.333Z,96986.72
2023-03-17T07:06:23.324Z,96980.22
2023-03-17T07:08:52.384Z,96984.25
2023-03-17T07:11:23.614Z,96979.38
2023-03-17T07:13:52.083Z,96979.56
2023-03-17T07:16:21.038Z,96984.25
2023-03-17T07:18:49.879Z,96976.47
2023-03-17T07:21:17.729Z,96985.56
2023-03-17T07:23:45.518Z,96982.97
2023-03-17T07:26:13.298Z,96985.56
2023-03-17T07:28:42.502Z,96983.63
2023-03-17T07:31:14.171Z,96978.28
2023-03-17T07:33:42.644Z,96969.84
2023-03-17T07:36:10.928Z,96968.28
2023-03-17T07:38:38.839Z,96970.09
2023-03-17T07:41:09.942Z,96974.03
2023-03-17T07:43:38.872Z,96980.91
2023-03-17T07:46:08.533Z,96983.06
2023-03-17T07:48:40.882Z,96985.31
2023-03-17T07:51:11.364Z,96983.78
2023-03-17T07:53:39.218Z,96982.69
2023-03-17T07:56:07.579Z,96979.16
2023-03-17T07:58:35.907Z,96975.00
2023-03-17T08:01:05.025Z,96968.47
2023-03-17T08:03:34.401Z,96957.50
2023-03-17T08:06:03.787Z,96956.09
2023-03-17T08:08:31.666Z,96952.94
2023-03-17T08:11:03.628Z,96961.59
2023-03-17T08:13:31.621Z,96964.09
2023-03-17T08:15:59.436Z,96961.72
2023-03-17T08:18:27.491Z,96957.69
2023-03-17T08:20:56.636Z,96957.13
2023-03-17T08:23:25.528Z,96962.81
2023-03-17T08:25:57.973Z,96970.59
2023-03-17T08:28:26.002Z,96975.13
2023-03-17T08:30:54.417Z,96959.47
2023-03-17T08:33:22.673Z,96987.31
2023-03-17T08:35:50.930Z,96989.69
2023-03-17T08:38:20.177Z,96987.88
2023-03-17T08:40:50.102Z,96992.72
2023-03-17T08:43:18.710Z,96979.50
2023-03-17T08:45:46.619Z,96982.31
2023-03-17T08:48:14.482Z,96989.50
2023-03-17T08:50:42.276Z,96983.25
2023-03-17T08:53:10.120Z,96973.31
2023-03-17T08:55:39.928Z,96972.72
2023-03-17T08:58:07.749Z,96966.94
2023-03-17T09:00:36.013Z,96971.59
2023-03-17T09:03:03.898Z,96961.72
2023-03-17T09:05:32.163Z,96956.47
2023-03-17T09:08:00.338Z,96957.19
2023-03-17T09:10:29.152Z,96951.63
2023-03-17T09:13:03.020Z,96939.78
2023-03-17T09:15:31.290Z,96949.09
2023-03-17T09:17:59.289Z,96942.97
2023-03-17T09:20:33.941Z,96939.78
2023-03-17T09:23:17.762Z,96937.69
2023-03-17T09:25:46.214Z,96939.38
2023-03-17T09:28:15.399Z,96951.44
2023-03-17T09:30:43.746Z,96944.66
2023-03-17T09:33:12.035Z,96946.94
2023-03-17T09:35:41.254Z,96932.53
2023-03-17T09:38:09.375Z,96934.09
2023-03-17T09:40:39.568Z,96938.19
2023-03-17T09:43:12.929Z,96926.34
2023-03-17T09:45:43.764Z,96940.00
2023-03-17T09:48:44.080Z,96932.78
2023-03-17T09:51:13.079Z,96936.75
2023-03-17T09:53:48.475Z,96944.97
2023-03-17T09:56:17.850Z,96940.56
2023-03-17T09:58:51.276Z,96944.56
2023-03-17T10:01:20.815Z,96941.38
2023-03-17T10:03:50.501Z,96946.44
2023-03-17T10:06:29.357Z,96942.88
2023-03-17T10:09:00.133Z,96945.22
2023-03-17T10:11:36.480Z,96938.06
2023-03-17T10:14:05.709Z,96941.94
2023-03-17T10:16:42.608Z,96945.81
2023-03-17T10:19:18.367Z,96939.09
2023-03-17T10:21:54.605Z,96925.44
2023-03-17T10:24:22.845Z,96927.47
2023-03-17T10:26:53.294Z,96921.22
2023-03-17T10:29:23.880Z,96923.06
2023-03-17T10:31:57.053Z,96921.78
2023-03-17T10:34:28.680Z,96924.41
2023-03-17T10:37:00.956Z,96922.81
2023-03-17T10:39:32.529Z,96903.66
2023-03-17T10:42:04.263Z,96929.50
2023-03-17T10:44:45.207Z,96930.06
2023-03-17T10:47:28.565Z,96924.50
2023-03-17T10:49:57.607Z,96920.63
2023-03-17T10:52:28.676Z,96917.97
2023-03-17T10:54:56.527Z,96927.78
2023-03-17T10:57:24.551Z,96927.84
2023-03-17T10:59:54.003Z,96922.31
2023-03-17T11:02:27.471Z,96931.97
2023-03-17T11:04:56.758Z,96916.16
2023-03-17T11:07:29.470Z,96909.81
2023-03-17T11:09:59.436Z,96907.28
2023-03-17T11:12:29.172Z,96912.25
2023-03-17T11:15:00.928Z,96918.38
2023-03-17T11:17:51.590Z,96914.31
2023-03-17T11:20:41.525Z,96923.63
2023-03-17T11:23:16.334Z,96915.69
2023-03-17T11:25:46.105Z,96902.25
2023-03-17T11:28:19.968Z,96890.25
2023-03-17T11:30:55.647Z,96898.00
2023-03-17T11:33:34.851Z,96898.75
2023-03-17T11:36:05.210Z,96895.03
2023-03-17T11:38:37.030Z,96898.03
2023-03-17T11:41:22.996Z,96886.06
2023-03-17T11:44:01.767Z,96886.25
2023-03-17T11:46:30.953Z,96863.97
2023-03-17T11:49:06.777Z,96882.09
2023-03-17T11:51:37.568Z,96872.75
2023-03-17T11:54:10.691Z,96877.78
2023-03-17T11:56:42.855Z,96875.00
2023-03-17T11:59:21.822Z,96880.56
2023-03-17T12:01:56.008Z,96880.44
2023-03-17T12:04:30.225Z,96867.97
2023-03-17T12:07:02.385Z,96864.25
2023-03-17T12:09:33.749Z,96865.50
2023-03-17T12:12:04.136Z,96854.75
2023-03-17T12:14:35.046Z,96856.59
2023-03-17T12:17:06.310Z,96848.78
2023-03-17T12:19:42.449Z,96861.97
2023-03-17T12:22:18.957Z,96854.44
2023-03-17T12:24:50.337Z,96852.53
2023-03-17T12:27:22.032Z,96862.66
2023-03-17T12:29:53.421Z,96863.19
2023-03-17T12:32:23.501Z,96869.50
2023-03-17T12:34:57.098Z,96869.28
2023-03-17T12:37:27.703Z,96853.59
2023-03-17T12:40:00.719Z,96859.22
2023-03-17T12:42:39.598Z,96863.31
2023-03-17T12:45:46.029Z,96867.38
2023-03-17T12:48:29.308Z,96856.34
2023-03-17T12:51:10.803Z,96848.91
2023-03-17T12:53:39.993Z,96847.25
2023-03-17T12:56:19.345Z,96845.44
2023-03-17T12:58:49.808Z,96844.09
2023-03-17T13:01:24.492Z,96846.16
2023-03-17T13:04:03.823Z,96832.88
2023-03-17T13:06:39.827Z,96833.22
2023-03-17T13:09:53.132Z,96837.41
2023-03-17T13:12:57.128Z,96833.56
2023-03-17T13:15:30.869Z,96826.13
2023-03-17T13:18:38.289Z,96828.28
2023-03-17T13:21:14.828Z,96816.47
2023-03-17T13:23:45.868Z,96819.22
2023-03-17T13:26:14.815Z,96814.84
2023-03-17T13:28:45.690Z,96821.88
2023-03-17T13:31:18.009Z,96823.66
2023-03-17T13:33:47.428Z,96817.69
2023-03-17T13:36:36.308Z,96808.50
2023-03-17T13:39:38.848Z,96812.09
2023-03-17T13:42:19.622Z,96805.53
2023-03-17T13:45:03.114Z,96803.38
2023-03-17T13:47:35.780Z,96800.94
2023-03-17T13:50:09.294Z,96803.63
2023-03-17T13:52:42.258Z,96796.63
2023-03-17T13:55:41.188Z,96795.78
2023-03-17T13:58:24.805Z,96798.41
2023-03-17T14:00:58.780Z,96790.03
2023-03-17T14:03:32.231Z,96790.03
2023-03-17T14:06:02.586Z,96791.78
2023-03-17T14:08:32.455Z,96794.97
2023-03-17T14:11:03.768Z,96786.41
2023-03-17T14:13:35.579Z,96784.56
2023-03-17T14:16:08.319Z,96785.91
2023-03-17T14:18:37.885Z,96782.69
2023-03-17T14:21:11.676Z,96783.72
2023-03-17T14:23:39.679Z,96779.34
2023-03-17T14:26:12.096Z,96765.56
2023-03-17T14:28:39.954Z,96776.38
2023-03-17T14:31:08.975Z,96773.09
2023-03-17T14:33:39.054Z,96772.00
2023-03-17T14:36:09.013Z,96776.78
2023-03-17T14:38:38.453Z,96767.94
2023-03-17T14:41:16.645Z,96769.63
2023-03-17T14:43:45.633Z,96764.00
2023-03-17T14:46:16.638Z,96772.97
2023-03-17T14:48:47.984Z,96765.25
2023-03-17T14:51:28.745Z,96765.59
2023-03-17T14:54:00.046Z,96761.69
2023-03-17T14:56:33.735Z,96764.09
2023-03-17T14:59:07.254Z,96765.03
2023-03-17T15:01:36.478Z,96767.25
2023-03-17T15:04:08.946Z,96755.97
2023-03-17T15:06:37.607Z,96750.94
2023-03-17T15:09:18.712Z,96755.78
2023-03-17T15:11:48.798Z,96757.69
2023-03-17T15:14:21.224Z,96761.38
2023-03-17T15:16:50.974Z,96759.31
2023-03-17T15:19:22.493Z,96756.50
2023-03-17T15:21:51.017Z,96762.97
2023-03-17T15:24:34.445Z,96772.38
2023-03-17T15:27:05.791Z,96768.34
2023-03-17T15:29:33.800Z,96758.38
2023-03-17T15:32:07.382Z,96759.63
2023-03-17T15:34:35.366Z,96759.75
2023-03-17T15:37:03.173Z,96758.16
2023-03-17T15:39:31.018Z,96755.53
2023-03-17T15:41:58.841Z,96751.78
2023-03-17T15:44:28.001Z,96758.38
2023-03-17T15:46:55.819Z,96721.84
2023-03-17T15:49:26.925Z,96754.91
2023-03-17T15:51:54.889Z,96760.91
2023-03-17T15:54:22.777Z,96768.56
2023-03-17T15:56:50.931Z,96768.00
2023-03-17T15:59:18.711Z,96764.72
2023-03-17T16:01:48.157Z,96770.44
2023-03-17T16:04:17.944Z,96764.72
2023-03-17T16:06:47.941Z,96773.84
2023-03-17T16:09:17.524Z,96765.13
2023-03-17T16:11:45.372Z,96774.31
2023-03-17T16:14:13.131Z,96777.28
2023-03-17T16:16:42.936Z,96779.78
2023-03-17T16:19:18.421Z,96777.28
2023-03-17T16:21:46.266Z,96782.50
2023-03-17T16:24:18.802Z,96776.50
2023-03-17T16:26:46.627Z,96776.06
2023-03-17T16:29:15.350Z,96769.38
2023-03-17T16:31:43.425Z,96766.34
2023-03-17T16:34:17.892Z,96765.91
2023-03-17T16:36:45.878Z,96754.19
2023-03-17T16:39:18.638Z,96756.81
2023-03-17T16:41:47.729Z,96757.44
2023-03-17T16:44:17.045Z,96737.94
2023-03-17T16:46:46.166Z,96745.16
2023-03-17T16:49:18.040Z,96740.53
2023-03-17T16:51:46.053Z,96742.31
2023-03-17T16:54:14.051Z,96743.53
2023-03-17T16:56:42.773Z,96730.94
2023-03-17T16:59:12.627Z,96733.00
2023-03-17T17:01:40.537Z,96735.88
2023-03-17T17:04:11.095Z,96739.03
2023-03-17T17:06:40.282Z,96753.44
2023-03-17T17:09:08.053Z,96752.00
2023-03-17T17:11:35.858Z,96759.06
2023-03-17T17:14:03.755Z,96762.81
2023-03-17T17:16:35.978Z,96735.03
2023-03-17T17:19:04.939Z,96759.47
2023-03-17T17:21:33.978Z,96761.13
2023-03-17T17:24:03.138Z,96776.00
2023-03-17T17:26:30.944Z,96779.47
2023-03-17T17:28:58.723Z,96775.16
2023-03-17T17:31:26.568Z,96784.16
2023-03-17T17:33:54.585Z,96785.81
2023-03-17T17:36:22.479Z,96789.41
2023-03-17T17:38:51.772Z,96787.06
2023-03-17T17:41:21.870Z,96792.31
2023-03-17T17:43:50.095Z,96761.69
2023-03-17T17:46:20.883Z,96795.47
2023-03-17T17:48:48.789Z,96794.75
2023-03-17T17:51:16.690Z,96762.41
2023-03-17T17:53:44.509Z,96802.03
2023-03-17T17:56:14.787Z,96794.50
2023-03-17T17:58:44.519Z,96797.16
2023-03-17T18:01:14.074Z,96788.88
2023-03-17T18:03:43.144Z,96788.03
2023-03-17T18:06:11.720Z,96792.47
2023-03-17T18:08:40.206Z,96788.53
2023-03-17T18:11:08.451Z,96798.47
2023-03-17T18:13:39.002Z,96791.78
2023-03-17T18:16:10.812Z,96778.97
2023-03-17T18:18:40.701Z,96778.38
2023-03-17T18:21:08.494Z,96787.47
2023-03-17T18:23:36.605Z,96781.59
2023-03-17T18:26:06.034Z,96779.44
2023-03-17T18:28:34.119Z,96782.69
2023-03-17T18:31:05.564Z,96782.81
2023-03-17T18:33:34.816Z,96788.09
2023-03-17T18:36:05.904Z,96792.38
2023-03-17T18:38:34.082Z,96787.84
2023-03-17T18:41:02.404Z,96783.31
2023-03-17T18:43:30.260Z,96795.53
2023-03-17T18:45:58.307Z,96796.22
2023-03-17T18:48:26.180Z,96795.38
2023-03-17T18:50:55.528Z,96792.63
2023-03-17T18:53:23.553Z,96783.88
2023-03-17T18:55:51.350Z,96794.06
2023-03-17T18:58:19.186Z,96792.13
2023-03-17T19:00:47.286Z,96797.41
2023-03-17T19:03:15.194Z,96793.59
2023-03-17T19:05:43.010Z,96796.22
2023-03-17T19:08:13.909Z,96800.53
2023-03-17T19:10:43.942Z,96799.56
2023-03-17T19:13:11.794Z,96804.72
2023-03-17T19:15:39.606Z,96800.28
2023-03-17T19:18:07.840Z,96808.19
2023-03-17T19:20:36.590Z,96814.41
2023-03-17T19:23:05.881Z,96810.25
2023-03-17T19:25:36.009Z,96804.25
2023-03-17T19:28:04.537Z,96817.66
2023-03-17T19:30:32.515Z,96812.03
2023-03-17T19:33:00.496Z,96814.06
2023-03-17T19:35:28.357Z,96813.13
2023-03-17T19:37:56.509Z,96814.91
2023-03-17T19:40:24.375Z,96820.19
2023-03-17T19:42:53.571Z,96819.81
2023-03-17T19:45:21.644Z,96820.91
2023-03-17T19:47:49.498Z,96814.69
2023-03-17T19:50:17.697Z,96826.91
2023-03-17T19:52:46.185Z,96803.78
2023-03-17T19:55:14.028Z,96812.50
2023-03-17T19:57:41.975Z,96820.31
2023-03-17T20:00:12.974Z,96795.50
2023-03-17T20:02:40.936Z,96816.13
2023-03-17T20:05:09.304Z,96822.06
2023-03-17T20:07:37.201Z,96815.47
2023-03-17T20:10:06.598Z,96808.91
2023-03-17T20:12:37.426Z,96824.72
2023-03-17T20:15:06.931Z,96826.16
2023-03-17T20:17:36.433Z,96834.78
2023-03-17T20:20:04.915Z,96823.28
2023-03-17T20:22:33.495Z,96831.19
2023-03-17T20:25:01.449Z,96834.91
2023-03-17T20:27:30.061Z,96827.81
2023-03-17T20:29:58.725Z,96841.00
2023-03-17T20:32:27.652Z,96838.59
2023-03-17T20:34:56.940Z,96828.78
2023-03-17T20:37:24.928Z,96838.59
2023-03-17T20:39:54.297Z,96834.06
2023-03-17T20:42:22.719Z,96838.59
2023-03-17T20:44:53.006Z,96822.31
2023-03-17T20:47:21.459Z,96822.81
2023-03-17T20:49:50.647Z,96815.38
2023-03-17T20:52:19.893Z,96823.78
2023-03-17T20:54:47.712Z,96820.06
2023-03-17T20:57:16.037Z,96824.03
2023-03-17T20:59:45.231Z,96794.06
2023-03-17T21:02:17.001Z,96820.78
2023-03-17T21:04:47.663Z,96831.44
2023-03-17T21:07:16.822Z,96836.09
2023-03-17T21:09:46.878Z,96832.88
2023-03-17T21:12:15.786Z,96823.50
2023-03-17T21:14:44.192Z,96815.13
2023-03-17T21:17:12.399Z,96825.78
2023-03-17T21:19:40.585Z,96820.03
2023-03-17T21:22:08.397Z,96828.78
2023-03-17T21:24:39.768Z,96829.03
2023-03-17T21:27:11.235Z,96837.16
2023-03-17T21:29:39.785Z,96840.53
2023-03-17T21:32:08.500Z,96841.47
2023-03-17T21:34:37.161Z,96837.06
2023-03-17T21:37:05.428Z,96834.75
2023-03-17T21:39:34.121Z,96832.13
2023-03-17T21:42:02.031Z,96832.97
2023-03-17T21:44:32.419Z,96833.81
2023-03-17T21:47:02.580Z,96838.38
2023-03-17T21:49:30.394Z,96838.47
2023-03-17T21:51:59.095Z,96841.44
2023-03-17T21:54:26.896Z,96844.22
2023-03-17T21:56:54.795Z,96845.16
2023-03-17T21:59:22.646Z,96851.38
2023-03-17T22:01:53.035Z,96847.44
2023-03-17T22:04:21.271Z,96855.53
2023-03-17T22:06:49.170Z,96853.88
2023-03-17T22:09:19.115Z,96851.47
2023-03-17T22:11:47.134Z,96854.34
2023-03-17T22:14:19.850Z,96852.66
2023-03-17T22:16:48.461Z,96846.69
2023-03-17T22:19:21.016Z,96840.91
2023-03-17T22:21:49.151Z,96844.25
2023-03-17T22:24:17.362Z,96844.16
2023-03-17T22:26:45.260Z,96840.69
2023-03-17T22:29:13.576Z,96825.34
2023-03-17T22:31:41.470Z,96844.16
2023-03-17T22:34:09.960Z,96853.97
2023-03-17T22:36:39.134Z,96855.19
2023-03-17T22:39:08.832Z,96851.22
2023-03-17T22:41:36.688Z,96851.00
2023-03-17T22:44:05.098Z,96848.38
2023-03-17T22:46:32.896Z,96852.91
2023-03-17T22:49:00.698Z,96856.50
2023-03-17T22:51:28.532Z,96855.22
2023-03-17T22:53:57.773Z,96859.06
2023-03-17T22:56:26.186Z,96863.50
2023-03-17T22:58:54.682Z,96857.88
2023-03-17T23:01:25.691Z,96860.03
2023-03-17T23:03:54.200Z,96867.34
2023-03-17T23:06:22.517Z,96866.28
2023-03-17T23:08:50.539Z,96870.34
2023-03-17T23:11:21.258Z,96869.63
2023-03-17T23:13:50.499Z,96875.50
2023-03-17T23:16:18.997Z,96872.97
2023-03-17T23:18:47.225Z,96870.47
2023-03-17T23:21:21.241Z,96882.94
2023-03-17T23:23:49.522Z,96884.09
2023-03-17T23:26:19.059Z,96890.31
2023-03-17T23:28:47.657Z,96893.31
2023-03-17T23:31:15.977Z,96893.69
2023-03-17T23:33:44.062Z,96907.06
2023-03-17T23:36:14.096Z,96897.00
2023-03-17T23:38:42.632Z,96907.75
2023-03-17T23:41:10.668Z,96906.31
2023-03-17T23:43:39.902Z,96904.13
2023-03-17T23:46:08.371Z,96912.34
2023-03-17T23:48:36.441Z,96921.34
2023-03-17T23:51:04.616Z,96923.47
2023-03-17T23:53:33.019Z,96925.91
2023-03-17T23:56:00.888Z,96924.56
2023-03-17T23:58:28.658Z,96923.84
